sensor_id;sensor_type;location;lat;lon;timestamp;temperature;humidity
7366;DHT22;3723;52.220;8.792;2024-01-15T00:01:11;0.70;1.00
7366;DHT22;3723;52.220;8.792;2024-01-15T00:03:38;0.70;1.00
7366;DHT22;3723;52.220;8.792;2024-01-15T00:06:05;0.70;1.00
7366;DHT22;3723;52.220;8.792;2024-01-15T00:08:32;0.80;1.00
7366;DHT22;3723;52.220;8.792;2024-01-15T00:10:59;0.70;1.00
7366;DHT22;3723;52.220;8.792;2024-01-15T00:13:26;0.70;1.00
7366;DHT22;3723;52.220;8.792;2024-01-15T00:15:52;0.70;1.00
7366;DHT22;3723;52.220;8.792;2024-01-15T00:18:21;0.70;1.00
7366;DHT22;3723;52.220;8.792;2024-01-15T00:20:48;0.70;1.00
7366;DHT22;3723;52.220;8.792;2024-01-15T00:23:15;0.70;1.00
7366;DHT22;3723;52.220;8.792;2024-01-15T00:25:42;0.70;1.00
7366;DHT22;3723;52.220;8.792;2024-01-15T00:28:09;0.70;1.00
7366;DHT22;3723;52.220;8.792;2024-01-15T00:30:36;0.70;99.90
7366;DHT22;3723;52.220;8.792;2024-01-15T00:33:03;0.60;99.90
7366;DHT22;3723;52.220;8.792;2024-01-15T00:35:33;0.60;99.90
7366;DHT22;3723;52.220;8.792;2024-01-15T00:38:00;0.60;99.90
7366;DHT22;3723;52.220;8.792;2024-01-15T00:40:26;0.70;99.90
7366;DHT22;3723;52.220;8.792;2024-01-15T00:42:53;0.70;99.90
7366;DHT22;3723;52.220;8.792;2024-01-15T00:45:20;0.70;99.90
7366;DHT22;3723;52.220;8.792;2024-01-15T00:47:47;0.70;99.90
7366;DHT22;3723;52.220;8.792;2024-01-15T00:50:14;0.70;1.00
7366;DHT22;3723;52.220;8.792;2024-01-15T00:52:42;0.70;1.00
7366;DHT22;3723;52.220;8.792;2024-01-15T00:55:09;0.70;99.90
7366;DHT22;3723;52.220;8.792;2024-01-15T00:57:36;0.70;99.90
7366;DHT22;3723;52.220;8.792;2024-01-15T01:00:04;0.70;99.90
7366;DHT22;3723;52.220;8.792;2024-01-15T01:02:32;0.70;99.90
7366;DHT22;3723;52.220;8.792;2024-01-15T01:04:58;0.70;99.90
7366;DHT22;3723;52.220;8.792;2024-01-15T01:07:25;0.70;99.90
7366;DHT22;3723;52.220;8.792;2024-01-15T01:09:54;0.60;99.90
7366;DHT22;3723;52.220;8.792;2024-01-15T01:12:22;0.60;99.90
7366;DHT22;3723;52.220;8.792;2024-01-15T01:14:49;0.60;99.90
7366;DHT22;3723;52.220;8.792;2024-01-15T01:17:16;0.40;99.90
7366;DHT22;3723;52.220;8.792;2024-01-15T01:19:44;0.40;99.90
7366;DHT22;3723;52.220;8.792;2024-01-15T01:22:10;0.40;99.90
7366;DHT22;3723;52.220;8.792;2024-01-15T01:24:37;0.40;99.90
7366;DHT22;3723;52.220;8.792;2024-01-15T01:27:05;0.40;99.90
7366;DHT22;3723;52.220;8.792;2024-01-15T01:29:32;0.40;99.90
7366;DHT22;3723;52.220;8.792;2024-01-15T01:31:59;0.50;99.90
7366;DHT22;3723;52.220;8.792;2024-01-15T01:34:26;0.50;1.00
7366;DHT22;3723;52.220;8.792;2024-01-15T01:36:53;0.60;99.90
7366;DHT22;3723;52.220;8.792;2024-01-15T01:39:20;0.60;99.90
7366;DHT22;3723;52.220;8.792;2024-01-15T01:41:47;0.60;99.90
7366;DHT22;3723;52.220;8.792;2024-01-15T01:44:15;0.70;99.90
7366;DHT22;3723;52.220;8.792;2024-01-15T01:47:19;0.70;99.90
7366;DHT22;3723;52.220;8.792;2024-01-15T01:49:46;0.70;99.90
7366;DHT22;3723;52.220;8.792;2024-01-15T01:52:13;0.60;99.90
7366;DHT22;3723;52.220;8.792;2024-01-15T01:54:40;0.60;99.90
7366;DHT22;3723;52.220;8.792;2024-01-15T01:57:08;0.60;99.90
7366;DHT22;3723;52.220;8.792;2024-01-15T01:59:37;0.60;99.90
7366;DHT22;3723;52.220;8.792;2024-01-15T02:02:04;0.50;99.90
7366;DHT22;3723;52.220;8.792;2024-01-15T02:04:32;0.50;99.90
7366;DHT22;3723;52.220;8.792;2024-01-15T02:06:59;0.50;99.90
7366;DHT22;3723;52.220;8.792;2024-01-15T02:09:26;0.50;99.90
7366;DHT22;3723;52.220;8.792;2024-01-15T02:11:53;0.60;99.90
7366;DHT22;3723;52.220;8.792;2024-01-15T02:14:19;0.60;99.90
7366;DHT22;3723;52.220;8.792;2024-01-15T02:16:48;0.60;99.90
7366;DHT22;3723;52.220;8.792;2024-01-15T02:19:16;0.60;97.70
7366;DHT22;3723;52.220;8.792;2024-01-15T02:21:43;0.70;95.30
7366;DHT22;3723;52.220;8.792;2024-01-15T02:24:11;0.70;90.70
7366;DHT22;3723;52.220;8.792;2024-01-15T02:26:38;0.70;62.10
7366;DHT22;3723;52.220;8.792;2024-01-15T02:29:07;0.80;56.70
7366;DHT22;3723;52.220;8.792;2024-01-15T02:31:34;0.80;42.30
7366;DHT22;3723;52.220;8.792;2024-01-15T02:34:01;0.80;20.10
7366;DHT22;3723;52.220;8.792;2024-01-15T02:36:28;0.90;8.40
7366;DHT22;3723;52.220;8.792;2024-01-15T02:38:55;0.90;1.00
7366;DHT22;3723;52.220;8.792;2024-01-15T02:41:23;1.00;1.00
7366;DHT22;3723;52.220;8.792;2024-01-15T02:43:50;0.90;1.00
7366;DHT22;3723;52.220;8.792;2024-01-15T02:46:17;1.00;1.00
7366;DHT22;3723;52.220;8.792;2024-01-15T02:48:44;1.00;1.00
7366;DHT22;3723;52.220;8.792;2024-01-15T02:51:10;1.00;1.00
7366;DHT22;3723;52.220;8.792;2024-01-15T02:53:38;1.00;1.00
7366;DHT22;3723;52.220;8.792;2024-01-15T02:56:06;1.00;1.00
7366;DHT22;3723;52.220;8.792;2024-01-15T02:58:35;1.00;1.00
7366;DHT22;3723;52.220;8.792;2024-01-15T03:01:02;1.00;1.00
7366;DHT22;3723;52.220;8.792;2024-01-15T03:03:29;1.00;1.00
7366;DHT22;3723;52.220;8.792;2024-01-15T03:05:55;0.90;1.00
7366;DHT22;3723;52.220;8.792;2024-01-15T03:08:22;0.90;1.00
7366;DHT22;3723;52.220;8.792;2024-01-15T03:10:49;0.90;1.00
7366;DHT22;3723;52.220;8.792;2024-01-15T03:13:16;0.90;1.00
7366;DHT22;3723;52.220;8.792;2024-01-15T03:15:46;0.90;1.00
7366;DHT22;3723;52.220;8.792;2024-01-15T03:18:13;0.90;1.00
7366;DHT22;3723;52.220;8.792;2024-01-15T03:20:39;0.90;1.00
7366;DHT22;3723;52.220;8.792;2024-01-15T03:23:06;0.90;1.00
7366;DHT22;3723;52.220;8.792;2024-01-15T03:25:33;0.90;1.00
7366;DHT22;3723;52.220;8.792;2024-01-15T03:28:00;0.90;1.00
7366;DHT22;3723;52.220;8.792;2024-01-15T03:30:27;1.00;1.00
7366;DHT22;3723;52.220;8.792;2024-01-15T03:32:55;0.90;1.00
7366;DHT22;3723;52.220;8.792;2024-01-15T03:35:22;1.00;1.00
7366;DHT22;3723;52.220;8.792;2024-01-15T03:37:49;1.00;1.00
7366;DHT22;3723;52.220;8.792;2024-01-15T03:40:16;1.00;1.00
7366;DHT22;3723;52.220;8.792;2024-01-15T03:42:43;0.90;1.00
7366;DHT22;3723;52.220;8.792;2024-01-15T03:45:10;1.00;1.00
7366;DHT22;3723;52.220;8.792;2024-01-15T03:47:37;0.90;1.00
7366;DHT22;3723;52.220;8.792;2024-01-15T03:50:06;0.90;1.00
7366;DHT22;3723;52.220;8.792;2024-01-15T03:52:32;0.90;1.00
7366;DHT22;3723;52.220;8.792;2024-01-15T03:54:59;0.90;1.00
7366;DHT22;3723;52.220;8.792;2024-01-15T03:57:26;0.90;1.00
7366;DHT22;3723;52.220;8.792;2024-01-15T03:59:53;1.00;1.00
7366;DHT22;3723;52.220;8.792;2024-01-15T04:02:20;1.00;1.00
7366;DHT22;3723;52.220;8.792;2024-01-15T04:04:46;1.00;1.00
7366;DHT22;3723;52.220;8.792;2024-01-15T04:07:14;1.00;1.00
7366;DHT22;3723;52.220;8.792;2024-01-15T04:09:41;1.00;1.00
7366;DHT22;3723;52.220;8.792;2024-01-15T04:12:08;1.00;1.00
7366;DHT22;3723;52.220;8.792;2024-01-15T04:14:35;1.10;1.00
7366;DHT22;3723;52.220;8.792;2024-01-15T04:17:01;1.10;1.00
7366;DHT22;3723;52.220;8.792;2024-01-15T04:19:28;1.10;1.00
7366;DHT22;3723;52.220;8.792;2024-01-15T04:21:55;1.10;1.00
7366;DHT22;3723;52.220;8.792;2024-01-15T04:24:24;1.10;1.00
7366;DHT22;3723;52.220;8.792;2024-01-15T04:26:51;1.10;1.00
7366;DHT22;3723;52.220;8.792;2024-01-15T04:29:18;1.10;1.00
7366;DHT22;3723;52.220;8.792;2024-01-15T04:31:44;1.00;1.00
7366;DHT22;3723;52.220;8.792;2024-01-15T04:34:11;1.10;1.00
7366;DHT22;3723;52.220;8.792;2024-01-15T04:36:41;1.10;1.00
7366;DHT22;3723;52.220;8.792;2024-01-15T04:39:08;1.10;1.00
7366;DHT22;3723;52.220;8.792;2024-01-15T04:41:37;1.10;1.00
7366;DHT22;3723;52.220;8.792;2024-01-15T04:44:04;1.20;1.00
7366;DHT22;3723;52.220;8.792;2024-01-15T04:46:31;1.10;1.00
7366;DHT22;3723;52.220;8.792;2024-01-15T04:48:58;1.10;1.00
7366;DHT22;3723;52.220;8.792;2024-01-15T04:51:25;1.10;1.00
7366;DHT22;3723;52.220;8.792;2024-01-15T04:53:52;1.10;1.00
7366;DHT22;3723;52.220;8.792;2024-01-15T04:56:18;1.10;1.00
7366;DHT22;3723;52.220;8.792;2024-01-15T04:58:46;1.10;1.00
7366;DHT22;3723;52.220;8.792;2024-01-15T05:01:15;1.10;1.00
7366;DHT22;3723;52.220;8.792;2024-01-15T05:03:43;1.10;1.00
7366;DHT22;3723;52.220;8.792;2024-01-15T05:06:31;1.20;1.00
7366;DHT22;3723;52.220;8.792;2024-01-15T05:08:58;1.20;1.00
7366;DHT22;3723;52.220;8.792;2024-01-15T05:11:26;1.20;1.00
7366;DHT22;3723;52.220;8.792;2024-01-15T05:13:54;1.20;1.00
7366;DHT22;3723;52.220;8.792;2024-01-15T05:16:21;1.20;1.00
7366;DHT22;3723;52.220;8.792;2024-01-15T05:18:48;1.30;1.00
7366;DHT22;3723;52.220;8.792;2024-01-15T05:21:15;1.30;1.00
7366;DHT22;3723;52.220;8.792;2024-01-15T05:23:42;1.30;1.00
7366;DHT22;3723;52.220;8.792;2024-01-15T05:26:08;1.30;1.00
7366;DHT22;3723;52.220;8.792;2024-01-15T05:28:35;1.40;1.00
7366;DHT22;3723;52.220;8.792;2024-01-15T05:31:04;1.30;1.00
7366;DHT22;3723;52.220;8.792;2024-01-15T05:33:30;1.30;1.00
7366;DHT22;3723;52.220;8.792;2024-01-15T05:35:57;1.40;1.00
7366;DHT22;3723;52.220;8.792;2024-01-15T05:38:25;1.30;1.00
7366;DHT22;3723;52.220;8.792;2024-01-15T05:40:51;1.30;1.00
7366;DHT22;3723;52.220;8.792;2024-01-15T05:43:18;1.30;1.00
7366;DHT22;3723;52.220;8.792;2024-01-15T05:45:45;1.30;1.00
7366;DHT22;3723;52.220;8.792;2024-01-15T05:48:14;1.30;1.00
7366;DHT22;3723;52.220;8.792;2024-01-15T05:50:42;1.30;1.00
7366;DHT22;3723;52.220;8.792;2024-01-15T05:53:08;1.30;1.00
7366;DHT22;3723;52.220;8.792;2024-01-15T05:55:36;1.20;1.00
7366;DHT22;3723;52.220;8.792;2024-01-15T05:58:06;1.30;1.00
7366;DHT22;3723;52.220;8.792;2024-01-15T06:00:33;1.20;1.00
7366;DHT22;3723;52.220;8.792;2024-01-15T06:03:01;1.30;1.00
7366;DHT22;3723;52.220;8.792;2024-01-15T06:05:29;1.30;1.00
7366;DHT22;3723;52.220;8.792;2024-01-15T06:07:56;1.30;1.00
7366;DHT22;3723;52.220;8.792;2024-01-15T06:10:23;1.20;1.00
7366;DHT22;3723;52.220;8.792;2024-01-15T06:12:49;1.20;1.00
7366;DHT22;3723;52.220;8.792;2024-01-15T06:15:16;1.20;1.00
7366;DHT22;3723;52.220;8.792;2024-01-15T06:17:43;1.10;1.00
7366;DHT22;3723;52.220;8.792;2024-01-15T06:20:11;1.10;1.00
7366;DHT22;3723;52.220;8.792;2024-01-15T06:22:39;1.10;1.00
7366;DHT22;3723;52.220;8.792;2024-01-15T06:25:07;1.10;1.00
7366;DHT22;3723;52.220;8.792;2024-01-15T06:27:34;1.10;1.00
7366;DHT22;3723;52.220;8.792;2024-01-15T06:30:01;1.10;1.00
7366;DHT22;3723;52.220;8.792;2024-01-15T06:32:27;1.20;1.00
7366;DHT22;3723;52.220;8.792;2024-01-15T06:34:54;1.20;1.00
7366;DHT22;3723;52.220;8.792;2024-01-15T06:37:21;1.20;1.00
7366;DHT22;3723;52.220;8.792;2024-01-15T06:39:49;1.20;1.00
7366;DHT22;3723;52.220;8.792;2024-01-15T06:42:16;1.20;1.00
7366;DHT22;3723;52.220;8.792;2024-01-15T06:44:43;1.20;1.00
7366;DHT22;3723;52.220;8.792;2024-01-15T06:47:10;1.30;1.00
7366;DHT22;3723;52.220;8.792;2024-01-15T06:49:37;1.20;1.00
7366;DHT22;3723;52.220;8.792;2024-01-15T06:52:10;1.20;1.00
7366;DHT22;3723;52.220;8.792;2024-01-15T06:54:38;1.20;1.00
7366;DHT22;3723;52.220;8.792;2024-01-15T06:57:06;1.20;1.00
7366;DHT22;3723;52.220;8.792;2024-01-15T06:59:33;1.20;1.00
7366;DHT22;3723;52.220;8.792;2024-01-15T07:02:00;1.10;1.00
7366;DHT22;3723;52.220;8.792;2024-01-15T07:04:28;1.10;1.00
7366;DHT22;3723;52.220;8.792;2024-01-15T07:06:55;1.00;1.00
7366;DHT22;3723;52.220;8.792;2024-01-15T07:09:22;0.90;1.00
7366;DHT22;3723;52.220;8.792;2024-01-15T07:11:49;1.00;1.00
7366;DHT22;3723;52.220;8.792;2024-01-15T07:14:17;1.00;1.00
7366;DHT22;3723;52.220;8.792;2024-01-15T07:16:45;0.90;1.00
7366;DHT22;3723;52.220;8.792;2024-01-15T07:19:12;0.90;1.00
7366;DHT22;3723;52.220;8.792;2024-01-15T07:21:39;0.90;1.00
7366;DHT22;3723;52.220;8.792;2024-01-15T07:24:08;0.90;1.00
7366;DHT22;3723;52.220;8.792;2024-01-15T07:26:35;0.90;1.00
7366;DHT22;3723;52.220;8.792;2024-01-15T07:29:02;0.90;1.00
7366;DHT22;3723;52.220;8.792;2024-01-15T07:31:30;0.80;1.00
7366;DHT22;3723;52.220;8.792;2024-01-15T07:33:58;0.90;1.00
7366;DHT22;3723;52.220;8.792;2024-01-15T07:36:25;0.90;1.00
7366;DHT22;3723;52.220;8.792;2024-01-15T07:38:52;0.90;1.00
7366;DHT22;3723;52.220;8.792;2024-01-15T07:41:19;0.90;1.00
7366;DHT22;3723;52.220;8.792;2024-01-15T07:43:48;0.90;1.00
7366;DHT22;3723;52.220;8.792;2024-01-15T07:46:15;1.00;1.00
7366;DHT22;3723;52.220;8.792;2024-01-15T07:48:43;1.00;1.00
7366;DHT22;3723;52.220;8.792;2024-01-15T07:51:10;1.10;1.00
7366;DHT22;3723;52.220;8.792;2024-01-15T07:53:37;1.10;1.00
7366;DHT22;3723;52.220;8.792;2024-01-15T07:56:04;1.10;1.00
7366;DHT22;3723;52.220;8.792;2024-01-15T07:58:31;1.10;1.00
7366;DHT22;3723;52.220;8.792;2024-01-15T08:00:58;1.20;1.00
7366;DHT22;3723;52.220;8.792;2024-01-15T08:03:24;1.10;1.00
7366;DHT22;3723;52.220;8.792;2024-01-15T08:05:53;1.20;1.00
7366;DHT22;3723;52.220;8.792;2024-01-15T08:08:21;1.20;1.00
7366;DHT22;3723;52.220;8.792;2024-01-15T08:10:49;1.30;1.00
7366;DHT22;3723;52.220;8.792;2024-01-15T08:13:16;1.30;1.00
7366;DHT22;3723;52.220;8.792;2024-01-15T08:15:44;1.30;1.00
7366;DHT22;3723;52.220;8.792;2024-01-15T08:18:12;1.30;1.00
7366;DHT22;3723;52.220;8.792;2024-01-15T08:20:39;1.50;1.00
7366;DHT22;3723;52.220;8.792;2024-01-15T08:23:08;1.40;1.00
7366;DHT22;3723;52.220;8.792;2024-01-15T08:25:41;1.50;1.00
7366;DHT22;3723;52.220;8.792;2024-01-15T08:28:08;1.50;1.00
7366;DHT22;3723;52.220;8.792;2024-01-15T08:30:37;1.60;1.00
7366;DHT22;3723;52.220;8.792;2024-01-15T08:33:04;1.60;1.00
7366;DHT22;3723;52.220;8.792;2024-01-15T08:35:31;1.60;1.00
7366;DHT22;3723;52.220;8.792;2024-01-15T08:37:58;1.70;1.00
7366;DHT22;3723;52.220;8.792;2024-01-15T08:40:26;1.80;1.00
7366;DHT22;3723;52.220;8.792;2024-01-15T08:42:53;1.80;1.00
7366;DHT22;3723;52.220;8.792;2024-01-15T08:45:20;1.90;1.00
7366;DHT22;3723;52.220;8.792;2024-01-15T08:47:47;1.90;1.00
7366;DHT22;3723;52.220;8.792;2024-01-15T08:50:14;2.00;1.00
7366;DHT22;3723;52.220;8.792;2024-01-15T08:52:40;1.90;1.00
7366;DHT22;3723;52.220;8.792;2024-01-15T08:55:07;2.00;1.00
7366;DHT22;3723;52.220;8.792;2024-01-15T08:57:36;2.00;1.00
7366;DHT22;3723;52.220;8.792;2024-01-15T09:00:03;2.00;1.00
7366;DHT22;3723;52.220;8.792;2024-01-15T09:02:34;2.00;1.00
7366;DHT22;3723;52.220;8.792;2024-01-15T09:05:01;2.00;1.00
7366;DHT22;3723;52.220;8.792;2024-01-15T09:07:31;1.90;1.00
7366;DHT22;3723;52.220;8.792;2024-01-15T09:10:01;1.80;1.00
7366;DHT22;3723;52.220;8.792;2024-01-15T09:12:28;1.80;1.00
7366;DHT22;3723;52.220;8.792;2024-01-15T09:14:56;1.80;1.00
7366;DHT22;3723;52.220;8.792;2024-01-15T09:17:23;1.80;1.00
7366;DHT22;3723;52.220;8.792;2024-01-15T09:19:50;1.70;1.00
7366;DHT22;3723;52.220;8.792;2024-01-15T09:22:17;1.70;1.00
7366;DHT22;3723;52.220;8.792;2024-01-15T09:24:44;1.70;1.00
7366;DHT22;3723;52.220;8.792;2024-01-15T09:27:11;1.60;1.00
7366;DHT22;3723;52.220;8.792;2024-01-15T09:29:38;1.60;1.00
7366;DHT22;3723;52.220;8.792;2024-01-15T09:32:08;1.50;1.00
7366;DHT22;3723;52.220;8.792;2024-01-15T09:34:35;1.50;1.00
7366;DHT22;3723;52.220;8.792;2024-01-15T09:37:02;1.50;1.00
7366;DHT22;3723;52.220;8.792;2024-01-15T09:39:29;1.50;1.00
7366;DHT22;3723;52.220;8.792;2024-01-15T09:41:57;1.50;1.00
7366;DHT22;3723;52.220;8.792;2024-01-15T09:44:25;1.60;1.00
7366;DHT22;3723;52.220;8.792;2024-01-15T09:46:55;1.70;1.00
7366;DHT22;3723;52.220;8.792;2024-01-15T09:49:23;1.90;1.00
7366;DHT22;3723;52.220;8.792;2024-01-15T09:51:51;2.10;1.00
7366;DHT22;3723;52.220;8.792;2024-01-15T09:54:18;2.20;1.00
7366;DHT22;3723;52.220;8.792;2024-01-15T09:56:45;2.30;1.00
7366;DHT22;3723;52.220;8.792;2024-01-15T09:59:14;2.30;1.00
7366;DHT22;3723;52.220;8.792;2024-01-15T10:01:43;2.40;1.00
7366;DHT22;3723;52.220;8.792;2024-01-15T10:04:11;2.40;1.00
7366;DHT22;3723;52.220;8.792;2024-01-15T10:06:39;2.30;1.00
7366;DHT22;3723;52.220;8.792;2024-01-15T10:09:12;2.30;1.00
7366;DHT22;3723;52.220;8.792;2024-01-15T10:11:40;2.20;1.00
7366;DHT22;3723;52.220;8.792;2024-01-15T10:14:08;2.20;1.00
7366;DHT22;3723;52.220;8.792;2024-01-15T10:16:38;2.20;1.00
7366;DHT22;3723;52.220;8.792;2024-01-15T10:19:05;2.20;1.00
7366;DHT22;3723;52.220;8.792;2024-01-15T10:21:32;2.20;1.00
7366;DHT22;3723;52.220;8.792;2024-01-15T10:24:03;2.20;1.00
7366;DHT22;3723;52.220;8.792;2024-01-15T10:26:31;2.20;1.00
7366;DHT22;3723;52.220;8.792;2024-01-15T10:28:59;2.20;1.00
7366;DHT22;3723;52.220;8.792;2024-01-15T10:31:27;2.30;1.00
7366;DHT22;3723;52.220;8.792;2024-01-15T10:33:54;2.40;1.00
7366;DHT22;3723;52.220;8.792;2024-01-15T10:36:22;2.40;1.00
7366;DHT22;3723;52.220;8.792;2024-01-15T10:38:49;2.50;1.00
7366;DHT22;3723;52.220;8.792;2024-01-15T10:41:17;2.50;1.00
7366;DHT22;3723;52.220;8.792;2024-01-15T10:43:45;2.40;1.00
7366;DHT22;3723;52.220;8.792;2024-01-15T10:46:12;2.50;1.00
7366;DHT22;3723;52.220;8.792;2024-01-15T10:48:39;2.50;1.00
7366;DHT22;3723;52.220;8.792;2024-01-15T10:51:07;2.50;1.00
7366;DHT22;3723;52.220;8.792;2024-01-15T10:53:37;2.50;1.00
7366;DHT22;3723;52.220;8.792;2024-01-15T10:56:05;2.40;1.00
7366;DHT22;3723;52.220;8.792;2024-01-15T10:58:34;2.40;1.00
7366;DHT22;3723;52.220;8.792;2024-01-15T11:01:02;2.40;1.00
7366;DHT22;3723;52.220;8.792;2024-01-15T11:03:30;2.50;1.00
7366;DHT22;3723;52.220;8.792;2024-01-15T11:05:57;2.60;1.00
7366;DHT22;3723;52.220;8.792;2024-01-15T11:08:25;2.50;1.00
7366;DHT22;3723;52.220;8.792;2024-01-15T11:10:52;2.50;1.00
7366;DHT22;3723;52.220;8.792;2024-01-15T11:13:20;2.60;1.00
7366;DHT22;3723;52.220;8.792;2024-01-15T11:16:04;2.60;1.00
7366;DHT22;3723;52.220;8.792;2024-01-15T11:18:32;2.50;1.00
7366;DHT22;3723;52.220;8.792;2024-01-15T11:21:20;2.40;1.00
7366;DHT22;3723;52.220;8.792;2024-01-15T11:23:48;2.40;1.00
7366;DHT22;3723;52.220;8.792;2024-01-15T11:26:27;2.50;1.00
7366;DHT22;3723;52.220;8.792;2024-01-15T11:28:56;2.50;1.00
7366;DHT22;3723;52.220;8.792;2024-01-15T11:31:28;2.50;1.00
7366;DHT22;3723;52.220;8.792;2024-01-15T11:33:55;2.50;1.00
7366;DHT22;3723;52.220;8.792;2024-01-15T11:36:22;2.50;1.00
7366;DHT22;3723;52.220;8.792;2024-01-15T11:39:39;2.50;1.00
7366;DHT22;3723;52.220;8.792;2024-01-15T11:42:08;2.60;1.00
7366;DHT22;3723;52.220;8.792;2024-01-15T11:44:37;2.70;1.00
7366;DHT22;3723;52.220;8.792;2024-01-15T11:47:07;2.80;1.00
7366;DHT22;3723;52.220;8.792;2024-01-15T11:50:00;3.00;1.00
7366;DHT22;3723;52.220;8.792;2024-01-15T11:52:33;3.20;1.00
7366;DHT22;3723;52.220;8.792;2024-01-15T11:55:05;3.30;1.00
7366;DHT22;3723;52.220;8.792;2024-01-15T11:57:41;3.20;1.00
7366;DHT22;3723;52.220;8.792;2024-01-15T12:00:09;3.20;1.00
7366;DHT22;3723;52.220;8.792;2024-01-15T12:02:39;3.10;1.00
7366;DHT22;3723;52.220;8.792;2024-01-15T12:05:06;3.00;1.00
7366;DHT22;3723;52.220;8.792;2024-01-15T12:07:33;2.90;1.00
7366;DHT22;3723;52.220;8.792;2024-01-15T12:10:00;2.90;1.00
7366;DHT22;3723;52.220;8.792;2024-01-15T12:12:35;2.80;1.00
7366;DHT22;3723;52.220;8.792;2024-01-15T12:15:04;2.70;1.00
7366;DHT22;3723;52.220;8.792;2024-01-15T12:17:32;2.70;1.00
7366;DHT22;3723;52.220;8.792;2024-01-15T12:20:00;2.60;1.00
7366;DHT22;3723;52.220;8.792;2024-01-15T12:22:28;2.70;1.00
7366;DHT22;3723;52.220;8.792;2024-01-15T12:24:55;2.60;1.00
7366;DHT22;3723;52.220;8.792;2024-01-15T12:27:23;2.60;1.00
7366;DHT22;3723;52.220;8.792;2024-01-15T12:29:50;2.50;1.00
7366;DHT22;3723;52.220;8.792;2024-01-15T12:32:18;2.50;1.00
7366;DHT22;3723;52.220;8.792;2024-01-15T12:34:46;2.50;1.00
7366;DHT22;3723;52.220;8.792;2024-01-15T12:37:14;2.50;1.00
7366;DHT22;3723;52.220;8.792;2024-01-15T12:39:43;2.40;1.00
7366;DHT22;3723;52.220;8.792;2024-01-15T12:42:10;2.40;1.00
7366;DHT22;3723;52.220;8.792;2024-01-15T12:44:37;2.40;1.00
7366;DHT22;3723;52.220;8.792;2024-01-15T12:47:04;2.30;1.00
7366;DHT22;3723;52.220;8.792;2024-01-15T12:49:31;2.40;1.00
7366;DHT22;3723;52.220;8.792;2024-01-15T12:51:59;2.40;1.00
7366;DHT22;3723;52.220;8.792;2024-01-15T12:54:27;2.40;1.00
7366;DHT22;3723;52.220;8.792;2024-01-15T12:56:54;2.30;1.00
7366;DHT22;3723;52.220;8.792;2024-01-15T12:59:21;2.40;1.00
7366;DHT22;3723;52.220;8.792;2024-01-15T13:01:48;2.50;1.00
7366;DHT22;3723;52.220;8.792;2024-01-15T13:04:21;2.80;1.00
7366;DHT22;3723;52.220;8.792;2024-01-15T13:06:49;2.90;1.00
7366;DHT22;3723;52.220;8.792;2024-01-15T13:09:16;3.00;1.00
7366;DHT22;3723;52.220;8.792;2024-01-15T13:11:45;2.90;1.00
7366;DHT22;3723;52.220;8.792;2024-01-15T13:14:12;2.80;1.00
7366;DHT22;3723;52.220;8.792;2024-01-15T13:16:40;2.70;1.00
7366;DHT22;3723;52.220;8.792;2024-01-15T13:19:07;2.50;1.00
7366;DHT22;3723;52.220;8.792;2024-01-15T13:21:36;2.40;1.00
7366;DHT22;3723;52.220;8.792;2024-01-15T13:24:03;2.40;1.00
7366;DHT22;3723;52.220;8.792;2024-01-15T13:26:31;2.30;1.00
7366;DHT22;3723;52.220;8.792;2024-01-15T13:29:00;2.20;1.00
7366;DHT22;3723;52.220;8.792;2024-01-15T13:31:27;2.20;1.00
7366;DHT22;3723;52.220;8.792;2024-01-15T13:33:54;2.20;1.00
7366;DHT22;3723;52.220;8.792;2024-01-15T13:36:22;2.20;1.00
7366;DHT22;3723;52.220;8.792;2024-01-15T13:38:49;2.30;1.00
7366;DHT22;3723;52.220;8.792;2024-01-15T13:41:17;2.20;1.00
7366;DHT22;3723;52.220;8.792;2024-01-15T13:43:45;2.30;1.00
7366;DHT22;3723;52.220;8.792;2024-01-15T13:46:13;2.20;1.00
7366;DHT22;3723;52.220;8.792;2024-01-15T13:48:40;2.20;1.00
7366;DHT22;3723;52.220;8.792;2024-01-15T13:51:07;2.20;1.00
7366;DHT22;3723;52.220;8.792;2024-01-15T13:53:34;2.20;1.00
7366;DHT22;3723;52.220;8.792;2024-01-15T13:56:01;2.20;1.00
7366;DHT22;3723;52.220;8.792;2024-01-15T13:58:28;2.20;1.00
7366;DHT22;3723;52.220;8.792;2024-01-15T14:01:03;2.20;1.00
7366;DHT22;3723;52.220;8.792;2024-01-15T14:03:32;2.10;1.00
7366;DHT22;3723;52.220;8.792;2024-01-15T14:05:59;2.10;1.00
7366;DHT22;3723;52.220;8.792;2024-01-15T14:08:28;1.90;1.00
7366;DHT22;3723;52.220;8.792;2024-01-15T14:11:06;1.80;1.00
7366;DHT22;3723;52.220;8.792;2024-01-15T14:13:32;1.80;1.00
7366;DHT22;3723;52.220;8.792;2024-01-15T14:16:00;1.80;1.00
7366;DHT22;3723;52.220;8.792;2024-01-15T14:18:26;1.80;1.00
7366;DHT22;3723;52.220;8.792;2024-01-15T14:20:55;1.80;1.00
7366;DHT22;3723;52.220;8.792;2024-01-15T14:23:22;1.80;1.00
7366;DHT22;3723;52.220;8.792;2024-01-15T14:25:49;1.70;1.00
7366;DHT22;3723;52.220;8.792;2024-01-15T14:28:40;1.60;1.00
7366;DHT22;3723;52.220;8.792;2024-01-15T14:31:07;1.60;1.00
7366;DHT22;3723;52.220;8.792;2024-01-15T14:33:34;1.50;1.00
7366;DHT22;3723;52.220;8.792;2024-01-15T14:36:02;1.50;1.00
7366;DHT22;3723;52.220;8.792;2024-01-15T14:38:29;1.50;1.00
7366;DHT22;3723;52.220;8.792;2024-01-15T14:40:56;1.30;1.00
7366;DHT22;3723;52.220;8.792;2024-01-15T14:43:23;1.30;1.00
7366;DHT22;3723;52.220;8.792;2024-01-15T14:45:50;1.30;1.00
7366;DHT22;3723;52.220;8.792;2024-01-15T14:48:17;1.20;1.00
7366;DHT22;3723;52.220;8.792;2024-01-15T14:50:59;1.20;1.00
7366;DHT22;3723;52.220;8.792;2024-01-15T14:53:29;1.20;1.00
7366;DHT22;3723;52.220;8.792;2024-01-15T14:55:56;1.20;1.00
7366;DHT22;3723;52.220;8.792;2024-01-15T14:58:23;1.20;1.00
7366;DHT22;3723;52.220;8.792;2024-01-15T15:00:53;1.20;1.00
7366;DHT22;3723;52.220;8.792;2024-01-15T15:03:20;1.30;1.00
7366;DHT22;3723;52.220;8.792;2024-01-15T15:05:47;1.30;1.00
7366;DHT22;3723;52.220;8.792;2024-01-15T15:08:14;1.30;1.00
7366;DHT22;3723;52.220;8.792;2024-01-15T15:10:42;1.20;1.00
7366;DHT22;3723;52.220;8.792;2024-01-15T15:13:09;1.20;1.00
7366;DHT22;3723;52.220;8.792;2024-01-15T15:15:36;1.20;1.00
7366;DHT22;3723;52.220;8.792;2024-01-15T15:18:03;1.20;1.00
7366;DHT22;3723;52.220;8.792;2024-01-15T15:20:30;1.20;1.00
7366;DHT22;3723;52.220;8.792;2024-01-15T15:22:57;1.20;1.00
7366;DHT22;3723;52.220;8.792;2024-01-15T15:25:24;1.10;1.00
7366;DHT22;3723;52.220;8.792;2024-01-15T15:27:51;1.20;1.00
7366;DHT22;3723;52.220;8.792;2024-01-15T15:30:18;1.10;1.00
7366;DHT22;3723;52.220;8.792;2024-01-15T15:32:44;1.10;1.00
7366;DHT22;3723;52.220;8.792;2024-01-15T15:35:11;1.10;1.00
7366;DHT22;3723;52.220;8.792;2024-01-15T15:37:39;1.10;1.00
7366;DHT22;3723;52.220;8.792;2024-01-15T15:40:07;1.10;1.00
7366;DHT22;3723;52.220;8.792;2024-01-15T15:42:36;1.10;1.00
7366;DHT22;3723;52.220;8.792;2024-01-15T15:45:05;1.10;1.00
7366;DHT22;3723;52.220;8.792;2024-01-15T15:47:33;1.10;1.00
7366;DHT22;3723;52.220;8.792;2024-01-15T15:50:00;1.00;1.00
7366;DHT22;3723;52.220;8.792;2024-01-15T15:52:27;1.00;1.00
7366;DHT22;3723;52.220;8.792;2024-01-15T15:54:54;1.00;1.00
7366;DHT22;3723;52.220;8.792;2024-01-15T15:57:20;1.00;1.00
7366;DHT22;3723;52.220;8.792;2024-01-15T15:59:48;1.10;1.00
7366;DHT22;3723;52.220;8.792;2024-01-15T16:02:16;1.10;1.00
7366;DHT22;3723;52.220;8.792;2024-01-15T16:04:43;1.00;1.00
7366;DHT22;3723;52.220;8.792;2024-01-15T16:07:10;1.00;1.00
7366;DHT22;3723;52.220;8.792;2024-01-15T16:09:37;1.00;1.00
7366;DHT22;3723;52.220;8.792;2024-01-15T16:12:06;0.90;1.00
7366;DHT22;3723;52.220;8.792;2024-01-15T16:14:33;1.00;1.00
7366;DHT22;3723;52.220;8.792;2024-01-15T16:17:00;0.90;1.00
7366;DHT22;3723;52.220;8.792;2024-01-15T16:19:29;0.90;1.00
7366;DHT22;3723;52.220;8.792;2024-01-15T16:21:55;0.90;1.00
7366;DHT22;3723;52.220;8.792;2024-01-15T16:24:22;0.80;1.00
7366;DHT22;3723;52.220;8.792;2024-01-15T16:26:50;0.70;1.00
7366;DHT22;3723;52.220;8.792;2024-01-15T16:29:17;0.80;1.00
7366;DHT22;3723;52.220;8.792;2024-01-15T16:31:44;0.80;1.00
7366;DHT22;3723;52.220;8.792;2024-01-15T16:34:11;0.90;1.00
7366;DHT22;3723;52.220;8.792;2024-01-15T16:36:40;0.90;1.00